sensor_id;sensor_type;location;lat;lon;timestamp;P1;durP1;ratioP1;P2;durP2;ratioP2
44816;SDS011;30529;53.570;9.964;2023-07-08T00:02:25;4.33;;;3.07;;
44816;SDS011;30529;53.570;9.964;2023-07-08T00:04:51;6.33;;;3.40;;
44816;SDS011;30529;53.570;9.964;2023-07-08T00:07:17;4.50;;;2.90;;
44816;SDS011;30529;53.570;9.964;2023-07-08T00:09:48;4.40;;;3.10;;
44816;SDS011;30529;53.570;9.964;2023-07-08T00:12:14;3.40;;;2.73;;
44816;SDS011;30529;53.570;9.964;2023-07-08T00:14:40;6.87;;;2.90;;
44816;SDS011;30529;53.570;9.964;2023-07-08T00:17:12;5.70;;;3.40;;
44816;SDS011;30529;53.570;9.964;2023-07-08T00:19:38;8.00;;;3.20;;
44816;SDS011;30529;53.570;9.964;2023-07-08T00:22:08;4.83;;;3.20;;
44816;SDS011;30529;53.570;9.964;2023-07-08T00:24:41;6.23;;;2.80;;
44816;SDS011;30529;53.570;9.964;2023-07-08T00:27:08;4.07;;;2.90;;
44816;SDS011;30529;53.570;9.964;2023-07-08T00:29:37;7.30;;;3.40;;
44816;SDS011;30529;53.570;9.964;2023-07-08T00:32:10;8.30;;;3.20;;
44816;SDS011;30529;53.570;9.964;2023-07-08T00:34:38;3.20;;;2.50;;
44816;SDS011;30529;53.570;9.964;2023-07-08T00:37:05;5.93;;;3.30;;
44816;SDS011;30529;53.570;9.964;2023-07-08T00:39:34;9.20;;;3.30;;
44816;SDS011;30529;53.570;9.964;2023-07-08T00:42:00;6.67;;;3.10;;
44816;SDS011;30529;53.570;9.964;2023-07-08T00:44:30;4.93;;;2.73;;
44816;SDS011;30529;53.570;9.964;2023-07-08T00:47:07;6.70;;;3.10;;
44816;SDS011;30529;53.570;9.964;2023-07-08T00:49:40;5.13;;;3.07;;
44816;SDS011;30529;53.570;9.964;2023-07-08T00:54:52;4.90;;;2.77;;
44816;SDS011;30529;53.570;9.964;2023-07-08T00:57:19;6.57;;;3.43;;
44816;SDS011;30529;53.570;9.964;2023-07-08T00:59:56;8.23;;;3.30;;
44816;SDS011;30529;53.570;9.964;2023-07-08T01:02:29;4.77;;;3.00;;
44816;SDS011;30529;53.570;9.964;2023-07-08T01:05:06;6.03;;;3.07;;
44816;SDS011;30529;53.570;9.964;2023-07-08T01:07:36;6.20;;;3.43;;
44816;SDS011;30529;53.570;9.964;2023-07-08T01:10:08;5.13;;;3.07;;
44816;SDS011;30529;53.570;9.964;2023-07-08T01:12:42;5.87;;;3.13;;
44816;SDS011;30529;53.570;9.964;2023-07-08T01:15:11;4.87;;;3.33;;
44816;SDS011;30529;53.570;9.964;2023-07-08T01:17:40;5.73;;;3.27;;
44816;SDS011;30529;53.570;9.964;2023-07-08T01:20:09;7.57;;;3.40;;
44816;SDS011;30529;53.570;9.964;2023-07-08T01:22:38;4.27;;;3.00;;
44816;SDS011;30529;53.570;9.964;2023-07-08T01:25:06;5.77;;;3.37;;
44816;SDS011;30529;53.570;9.964;2023-07-08T01:27:35;5.80;;;2.90;;
44816;SDS011;30529;53.570;9.964;2023-07-08T01:30:04;5.73;;;2.97;;
44816;SDS011;30529;53.570;9.964;2023-07-08T01:32:36;9.13;;;4.03;;
44816;SDS011;30529;53.570;9.964;2023-07-08T01:35:04;6.23;;;3.63;;
44816;SDS011;30529;53.570;9.964;2023-07-08T01:37:39;5.13;;;3.17;;
44816;SDS011;30529;53.570;9.964;2023-07-08T01:40:28;5.57;;;3.50;;
44816;SDS011;30529;53.570;9.964;2023-07-08T01:42:56;4.43;;;3.20;;
44816;SDS011;30529;53.570;9.964;2023-07-08T01:45:23;5.27;;;3.17;;
44816;SDS011;30529;53.570;9.964;2023-07-08T01:47:56;5.27;;;3.50;;
44816;SDS011;30529;53.570;9.964;2023-07-08T01:50:26;9.60;;;3.37;;
44816;SDS011;30529;53.570;9.964;2023-07-08T01:52:53;5.47;;;3.67;;
44816;SDS011;30529;53.570;9.964;2023-07-08T01:55:23;6.97;;;3.53;;
44816;SDS011;30529;53.570;9.964;2023-07-08T01:57:51;4.73;;;3.10;;
44816;SDS011;30529;53.570;9.964;2023-07-08T02:00:18;5.33;;;3.63;;
44816;SDS011;30529;53.570;9.964;2023-07-08T02:02:45;5.33;;;3.17;;
44816;SDS011;30529;53.570;9.964;2023-07-08T02:05:11;4.57;;;3.10;;
44816;SDS011;30529;53.570;9.964;2023-07-08T02:07:37;5.30;;;3.63;;
44816;SDS011;30529;53.570;9.964;2023-07-08T02:10:04;5.40;;;3.77;;
44816;SDS011;30529;53.570;9.964;2023-07-08T02:12:31;8.20;;;5.20;;
44816;SDS011;30529;53.570;9.964;2023-07-08T02:14:59;9.57;;;3.53;;
44816;SDS011;30529;53.570;9.964;2023-07-08T02:17:25;6.40;;;2.93;;
44816;SDS011;30529;53.570;9.964;2023-07-08T02:19:54;7.37;;;3.47;;
44816;SDS011;30529;53.570;9.964;2023-07-08T02:22:21;11.87;;;3.43;;
44816;SDS011;30529;53.570;9.964;2023-07-08T02:24:47;8.07;;;5.37;;
44816;SDS011;30529;53.570;9.964;2023-07-08T02:27:13;6.07;;;5.07;;
44816;SDS011;30529;53.570;9.964;2023-07-08T02:29:40;6.70;;;4.10;;
44816;SDS011;30529;53.570;9.964;2023-07-08T02:32:06;5.83;;;3.67;;
44816;SDS011;30529;53.570;9.964;2023-07-08T02:34:35;5.63;;;3.60;;
44816;SDS011;30529;53.570;9.964;2023-07-08T02:37:02;3.67;;;3.10;;
44816;SDS011;30529;53.570;9.964;2023-07-08T02:39:28;6.33;;;3.23;;
44816;SDS011;30529;53.570;9.964;2023-07-08T02:41:54;7.03;;;3.60;;
44816;SDS011;30529;53.570;9.964;2023-07-08T02:44:20;4.53;;;2.90;;
44816;SDS011;30529;53.570;9.964;2023-07-08T02:46:46;5.97;;;3.23;;
44816;SDS011;30529;53.570;9.964;2023-07-08T02:49:12;6.07;;;3.03;;
44816;SDS011;30529;53.570;9.964;2023-07-08T02:51:38;4.03;;;3.30;;
44816;SDS011;30529;53.570;9.964;2023-07-08T02:54:04;6.03;;;2.87;;
44816;SDS011;30529;53.570;9.964;2023-07-08T02:56:29;4.20;;;2.87;;
44816;SDS011;30529;53.570;9.964;2023-07-08T02:58:55;4.10;;;3.20;;
44816;SDS011;30529;53.570;9.964;2023-07-08T03:01:21;4.07;;;3.10;;
44816;SDS011;30529;53.570;9.964;2023-07-08T03:03:50;7.00;;;3.20;;
44816;SDS011;30529;53.570;9.964;2023-07-08T03:06:16;4.73;;;3.27;;
44816;SDS011;30529;53.570;9.964;2023-07-08T03:08:42;5.87;;;3.40;;
44816;SDS011;30529;53.570;9.964;2023-07-08T03:11:08;6.73;;;3.27;;
44816;SDS011;30529;53.570;9.964;2023-07-08T03:13:34;4.73;;;2.70;;
44816;SDS011;30529;53.570;9.964;2023-07-08T03:16:01;8.03;;;3.00;;
44816;SDS011;30529;53.570;9.964;2023-07-08T03:18:28;5.73;;;3.23;;
44816;SDS011;30529;53.570;9.964;2023-07-08T03:20:57;3.97;;;2.63;;
44816;SDS011;30529;53.570;9.964;2023-07-08T03:23:23;4.80;;;2.80;;
44816;SDS011;30529;53.570;9.964;2023-07-08T03:25:50;5.13;;;3.03;;
44816;SDS011;30529;53.570;9.964;2023-07-08T03:28:17;4.93;;;2.90;;
44816;SDS011;30529;53.570;9.964;2023-07-08T03:30:44;5.77;;;2.77;;
44816;SDS011;30529;53.570;9.964;2023-07-08T03:33:11;4.70;;;2.93;;
44816;SDS011;30529;53.570;9.964;2023-07-08T03:35:37;4.23;;;3.10;;
44816;SDS011;30529;53.570;9.964;2023-07-08T03:38:06;4.53;;;3.37;;
44816;SDS011;30529;53.570;9.964;2023-07-08T03:40:32;7.10;;;3.30;;
44816;SDS011;30529;53.570;9.964;2023-07-08T03:42:58;7.03;;;3.40;;
44816;SDS011;30529;53.570;9.964;2023-07-08T03:45:25;5.77;;;3.43;;
44816;SDS011;30529;53.570;9.964;2023-07-08T03:47:51;5.57;;;3.13;;
44816;SDS011;30529;53.570;9.964;2023-07-08T03:50:18;3.77;;;2.77;;
44816;SDS011;30529;53.570;9.964;2023-07-08T03:52:47;6.93;;;3.20;;
44816;SDS011;30529;53.570;9.964;2023-07-08T03:55:15;5.90;;;3.23;;
44816;SDS011;30529;53.570;9.964;2023-07-08T03:57:41;6.00;;;3.50;;
44816;SDS011;30529;53.570;9.964;2023-07-08T04:00:08;4.20;;;2.83;;
44816;SDS011;30529;53.570;9.964;2023-07-08T04:02:36;5.63;;;3.30;;
44816;SDS011;30529;53.570;9.964;2023-07-08T04:05:02;3.60;;;2.53;;
44816;SDS011;30529;53.570;9.964;2023-07-08T04:07:28;4.17;;;2.60;;
44816;SDS011;30529;53.570;9.964;2023-07-08T04:09:55;5.13;;;3.03;;
44816;SDS011;30529;53.570;9.964;2023-07-08T04:12:21;4.63;;;2.90;;
44816;SDS011;30529;53.570;9.964;2023-07-08T04:14:47;7.13;;;3.00;;
44816;SDS011;30529;53.570;9.964;2023-07-08T04:17:13;5.37;;;3.30;;
44816;SDS011;30529;53.570;9.964;2023-07-08T04:19:39;4.73;;;3.00;;
44816;SDS011;30529;53.570;9.964;2023-07-08T04:22:09;7.93;;;2.93;;
44816;SDS011;30529;53.570;9.964;2023-07-08T04:24:36;5.10;;;3.07;;
44816;SDS011;30529;53.570;9.964;2023-07-08T04:27:02;5.90;;;3.07;;
44816;SDS011;30529;53.570;9.964;2023-07-08T04:29:28;4.80;;;2.60;;
44816;SDS011;30529;53.570;9.964;2023-07-08T04:31:54;5.13;;;3.00;;
44816;SDS011;30529;53.570;9.964;2023-07-08T04:34:20;4.27;;;2.87;;
44816;SDS011;30529;53.570;9.964;2023-07-08T04:36:46;5.20;;;2.67;;
44816;SDS011;30529;53.570;9.964;2023-07-08T04:43:24;5.03;;;2.60;;
44816;SDS011;30529;53.570;9.964;2023-07-08T04:46:04;6.47;;;2.77;;
44816;SDS011;30529;53.570;9.964;2023-07-08T04:49:03;3.43;;;2.40;;
44816;SDS011;30529;53.570;9.964;2023-07-08T04:51:31;4.20;;;2.57;;
44816;SDS011;30529;53.570;9.964;2023-07-08T04:53:57;5.77;;;2.53;;
44816;SDS011;30529;53.570;9.964;2023-07-08T04:56:25;4.27;;;2.60;;
44816;SDS011;30529;53.570;9.964;2023-07-08T04:59:00;5.07;;;2.70;;
44816;SDS011;30529;53.570;9.964;2023-07-08T05:01:27;3.60;;;2.00;;
44816;SDS011;30529;53.570;9.964;2023-07-08T05:03:53;5.03;;;2.80;;
44816;SDS011;30529;53.570;9.964;2023-07-08T05:06:19;5.33;;;2.60;;
44816;SDS011;30529;53.570;9.964;2023-07-08T05:08:47;4.63;;;2.23;;
44816;SDS011;30529;53.570;9.964;2023-07-08T05:11:14;4.03;;;2.40;;
44816;SDS011;30529;53.570;9.964;2023-07-08T05:13:39;3.77;;;2.33;;
44816;SDS011;30529;53.570;9.964;2023-07-08T05:16:05;3.87;;;2.10;;
44816;SDS011;30529;53.570;9.964;2023-07-08T05:18:34;5.40;;;2.70;;
44816;SDS011;30529;53.570;9.964;2023-07-08T05:21:01;7.73;;;2.30;;
44816;SDS011;30529;53.570;9.964;2023-07-08T05:23:28;4.70;;;2.20;;
44816;SDS011;30529;53.570;9.964;2023-07-08T05:25:54;2.93;;;2.37;;
44816;SDS011;30529;53.570;9.964;2023-07-08T05:28:20;4.40;;;2.30;;
44816;SDS011;30529;53.570;9.964;2023-07-08T05:30:53;7.23;;;2.97;;
44816;SDS011;30529;53.570;9.964;2023-07-08T05:33:24;3.97;;;2.37;;
44816;SDS011;30529;53.570;9.964;2023-07-08T05:35:51;5.30;;;2.70;;
44816;SDS011;30529;53.570;9.964;2023-07-08T05:38:17;5.10;;;2.50;;
44816;SDS011;30529;53.570;9.964;2023-07-08T05:40:48;4.67;;;2.53;;
44816;SDS011;30529;53.570;9.964;2023-07-08T05:43:15;3.97;;;2.20;;
44816;SDS011;30529;53.570;9.964;2023-07-08T05:45:42;5.27;;;2.07;;
44816;SDS011;30529;53.570;9.964;2023-07-08T05:48:08;3.40;;;2.10;;
44816;SDS011;30529;53.570;9.964;2023-07-08T05:50:34;3.40;;;2.10;;
44816;SDS011;30529;53.570;9.964;2023-07-08T05:53:00;2.93;;;1.93;;
44816;SDS011;30529;53.570;9.964;2023-07-08T05:55:26;4.20;;;2.20;;
44816;SDS011;30529;53.570;9.964;2023-07-08T05:57:52;6.23;;;2.20;;
44816;SDS011;30529;53.570;9.964;2023-07-08T06:00:18;3.93;;;2.30;;
44816;SDS011;30529;53.570;9.964;2023-07-08T06:02:43;3.53;;;2.03;;
44816;SDS011;30529;53.570;9.964;2023-07-08T06:05:09;3.13;;;2.30;;
44816;SDS011;30529;53.570;9.964;2023-07-08T06:07:35;6.77;;;2.60;;
44816;SDS011;30529;53.570;9.964;2023-07-08T06:10:01;4.30;;;2.07;;
44816;SDS011;30529;53.570;9.964;2023-07-08T06:12:29;2.37;;;1.87;;
44816;SDS011;30529;53.570;9.964;2023-07-08T06:14:56;3.40;;;2.10;;
44816;SDS011;30529;53.570;9.964;2023-07-08T06:17:22;3.80;;;2.17;;
44816;SDS011;30529;53.570;9.964;2023-07-08T06:19:48;3.87;;;2.00;;
44816;SDS011;30529;53.570;9.964;2023-07-08T06:22:15;4.67;;;2.17;;
44816;SDS011;30529;53.570;9.964;2023-07-08T06:24:41;5.43;;;2.30;;
44816;SDS011;30529;53.570;9.964;2023-07-08T06:27:07;5.00;;;2.50;;
44816;SDS011;30529;53.570;9.964;2023-07-08T06:29:34;5.53;;;2.07;;
44816;SDS011;30529;53.570;9.964;2023-07-08T06:32:00;4.80;;;2.70;;
44816;SDS011;30529;53.570;9.964;2023-07-08T06:34:27;2.57;;;1.73;;
44816;SDS011;30529;53.570;9.964;2023-07-08T06:36:53;4.47;;;2.43;;
44816;SDS011;30529;53.570;9.964;2023-07-08T06:39:19;5.60;;;2.10;;
44816;SDS011;30529;53.570;9.964;2023-07-08T06:41:45;3.80;;;2.17;;
44816;SDS011;30529;53.570;9.964;2023-07-08T06:44:11;4.53;;;2.20;;
44816;SDS011;30529;53.570;9.964;2023-07-08T06:46:37;4.43;;;2.07;;
44816;SDS011;30529;53.570;9.964;2023-07-08T06:49:04;4.20;;;2.30;;
44816;SDS011;30529;53.570;9.964;2023-07-08T06:51:34;4.73;;;2.70;;
44816;SDS011;30529;53.570;9.964;2023-07-08T06:54:03;4.30;;;2.50;;
44816;SDS011;30529;53.570;9.964;2023-07-08T06:56:39;3.00;;;2.37;;
44816;SDS011;30529;53.570;9.964;2023-07-08T06:59:07;5.17;;;2.87;;
44816;SDS011;30529;53.570;9.964;2023-07-08T07:01:33;4.67;;;2.30;;
44816;SDS011;30529;53.570;9.964;2023-07-08T07:04:00;3.67;;;2.07;;
44816;SDS011;30529;53.570;9.964;2023-07-08T07:06:29;4.30;;;2.07;;
44816;SDS011;30529;53.570;9.964;2023-07-08T07:08:55;4.37;;;2.47;;
44816;SDS011;30529;53.570;9.964;2023-07-08T07:11:21;4.60;;;2.67;;
44816;SDS011;30529;53.570;9.964;2023-07-08T07:13:47;4.43;;;2.67;;
44816;SDS011;30529;53.570;9.964;2023-07-08T07:16:21;2.83;;;2.13;;
44816;SDS011;30529;53.570;9.964;2023-07-08T07:18:48;5.73;;;2.13;;
44816;SDS011;30529;53.570;9.964;2023-07-08T07:21:15;4.37;;;2.30;;
44816;SDS011;30529;53.570;9.964;2023-07-08T07:23:41;4.30;;;2.17;;
44816;SDS011;30529;53.570;9.964;2023-07-08T07:26:10;5.37;;;2.50;;
44816;SDS011;30529;53.570;9.964;2023-07-08T07:28:36;4.00;;;2.53;;
44816;SDS011;30529;53.570;9.964;2023-07-08T07:31:02;3.53;;;2.17;;
44816;SDS011;30529;53.570;9.964;2023-07-08T07:33:31;6.53;;;2.83;;
44816;SDS011;30529;53.570;9.964;2023-07-08T07:35:57;6.40;;;2.60;;
44816;SDS011;30529;53.570;9.964;2023-07-08T07:38:26;2.90;;;2.30;;
44816;SDS011;30529;53.570;9.964;2023-07-08T07:40:54;2.83;;;2.20;;
44816;SDS011;30529;53.570;9.964;2023-07-08T07:43:21;4.20;;;2.67;;
44816;SDS011;30529;53.570;9.964;2023-07-08T07:45:53;10.57;;;2.20;;
44816;SDS011;30529;53.570;9.964;2023-07-08T07:48:20;3.57;;;2.17;;
44816;SDS011;30529;53.570;9.964;2023-07-08T07:50:46;3.53;;;2.13;;
44816;SDS011;30529;53.570;9.964;2023-07-08T07:53:13;3.80;;;2.30;;
44816;SDS011;30529;53.570;9.964;2023-07-08T07:55:39;3.87;;;2.10;;
44816;SDS011;30529;53.570;9.964;2023-07-08T07:58:05;6.50;;;2.47;;
44816;SDS011;30529;53.570;9.964;2023-07-08T08:00:33;5.00;;;2.10;;
44816;SDS011;30529;53.570;9.964;2023-07-08T08:02:59;5.63;;;2.37;;
44816;SDS011;30529;53.570;9.964;2023-07-08T08:05:25;3.23;;;2.50;;
44816;SDS011;30529;53.570;9.964;2023-07-08T08:07:51;4.10;;;2.50;;
44816;SDS011;30529;53.570;9.964;2023-07-08T08:10:17;7.77;;;2.50;;
44816;SDS011;30529;53.570;9.964;2023-07-08T08:12:43;4.43;;;3.33;;
44816;SDS011;30529;53.570;9.964;2023-07-08T08:15:11;3.20;;;2.07;;
44816;SDS011;30529;53.570;9.964;2023-07-08T08:17:37;5.43;;;2.40;;
44816;SDS011;30529;53.570;9.964;2023-07-08T08:20:04;3.27;;;2.30;;
44816;SDS011;30529;53.570;9.964;2023-07-08T08:22:30;4.30;;;2.27;;
44816;SDS011;30529;53.570;9.964;2023-07-08T08:24:56;2.97;;;1.67;;
44816;SDS011;30529;53.570;9.964;2023-07-08T08:27:22;3.83;;;2.20;;
44816;SDS011;30529;53.570;9.964;2023-07-08T08:29:48;3.70;;;2.30;;
44816;SDS011;30529;53.570;9.964;2023-07-08T08:32:14;3.20;;;1.90;;
44816;SDS011;30529;53.570;9.964;2023-07-08T08:34:40;2.73;;;2.00;;
44816;SDS011;30529;53.570;9.964;2023-07-08T08:37:06;5.33;;;2.37;;
44816;SDS011;30529;53.570;9.964;2023-07-08T08:39:32;3.43;;;1.90;;
44816;SDS011;30529;53.570;9.964;2023-07-08T08:41:58;4.27;;;2.17;;
44816;SDS011;30529;53.570;9.964;2023-07-08T08:44:34;4.33;;;1.73;;
44816;SDS011;30529;53.570;9.964;2023-07-08T08:47:06;6.10;;;2.37;;
44816;SDS011;30529;53.570;9.964;2023-07-08T08:49:55;3.30;;;2.10;;
44816;SDS011;30529;53.570;9.964;2023-07-08T08:52:25;4.80;;;2.20;;
44816;SDS011;30529;53.570;9.964;2023-07-08T08:54:52;3.93;;;2.03;;
44816;SDS011;30529;53.570;9.964;2023-07-08T09:00:22;2.80;;;1.80;;
44816;SDS011;30529;53.570;9.964;2023-07-08T09:03:06;3.47;;;2.20;;
44816;SDS011;30529;53.570;9.964;2023-07-08T09:05:36;3.27;;;1.73;;
44816;SDS011;30529;53.570;9.964;2023-07-08T09:08:06;3.37;;;2.47;;
44816;SDS011;30529;53.570;9.964;2023-07-08T09:10:44;5.97;;;3.27;;
44816;SDS011;30529;53.570;9.964;2023-07-08T09:13:25;4.10;;;2.50;;
44816;SDS011;30529;53.570;9.964;2023-07-08T09:15:59;3.17;;;2.30;;
44816;SDS011;30529;53.570;9.964;2023-07-08T09:18:36;6.50;;;2.07;;
44816;SDS011;30529;53.570;9.964;2023-07-08T09:21:20;5.23;;;2.20;;
44816;SDS011;30529;53.570;9.964;2023-07-08T09:23:53;3.23;;;2.43;;
44816;SDS011;30529;53.570;9.964;2023-07-08T09:26:25;2.90;;;1.97;;
44816;SDS011;30529;53.570;9.964;2023-07-08T09:28:55;3.03;;;1.70;;
44816;SDS011;30529;53.570;9.964;2023-07-08T09:31:23;3.83;;;1.90;;
44816;SDS011;30529;53.570;9.964;2023-07-08T09:34:12;5.00;;;2.40;;
44816;SDS011;30529;53.570;9.964;2023-07-08T09:36:42;2.50;;;2.30;;
44816;SDS011;30529;53.570;9.964;2023-07-08T09:39:10;6.33;;;2.47;;
44816;SDS011;30529;53.570;9.964;2023-07-08T09:41:38;4.37;;;2.20;;
44816;SDS011;30529;53.570;9.964;2023-07-08T09:44:10;3.23;;;2.23;;
44816;SDS011;30529;53.570;9.964;2023-07-08T09:46:40;4.57;;;2.87;;
44816;SDS011;30529;53.570;9.964;2023-07-08T09:49:48;6.17;;;2.47;;
44816;SDS011;30529;53.570;9.964;2023-07-08T09:51:59;2.83;;;1.77;;
44816;SDS011;30529;53.570;9.964;2023-07-08T09:54:26;4.17;;;2.40;;
44816;SDS011;30529;53.570;9.964;2023-07-08T09:57:04;2.73;;;2.00;;
44816;SDS011;30529;53.570;9.964;2023-07-08T09:59:46;3.47;;;2.03;;
44816;SDS011;30529;53.570;9.964;2023-07-08T10:03:02;3.67;;;2.50;;
44816;SDS011;30529;53.570;9.964;2023-07-08T10:05:03;2.63;;;1.93;;
44816;SDS011;30529;53.570;9.964;2023-07-08T10:07:44;4.33;;;2.80;;
44816;SDS011;30529;53.570;9.964;2023-07-08T10:10:13;3.50;;;2.47;;
44816;SDS011;30529;53.570;9.964;2023-07-08T10:12:43;2.63;;;1.73;;
44816;SDS011;30529;53.570;9.964;2023-07-08T10:15:23;2.93;;;2.03;;
44816;SDS011;30529;53.570;9.964;2023-07-08T10:18:02;3.77;;;2.30;;
44816;SDS011;30529;53.570;9.964;2023-07-08T10:23:24;3.27;;;1.63;;
44816;SDS011;30529;53.570;9.964;2023-07-08T10:26:18;3.17;;;2.20;;
44816;SDS011;30529;53.570;9.964;2023-07-08T10:29:13;2.40;;;1.73;;
44816;SDS011;30529;53.570;9.964;2023-07-08T10:34:42;8.80;;;2.87;;
44816;SDS011;30529;53.570;9.964;2023-07-08T10:37:46;7.27;;;4.57;;
44816;SDS011;30529;53.570;9.964;2023-07-08T10:40:39;4.17;;;2.50;;
44816;SDS011;30529;53.570;9.964;2023-07-08T10:48:52;3.23;;;2.03;;
44816;SDS011;30529;53.570;9.964;2023-07-08T10:56:54;3.83;;;2.23;;
44816;SDS011;30529;53.570;9.964;2023-07-08T11:10:36;4.53;;;2.33;;
44816;SDS011;30529;53.570;9.964;2023-07-08T11:13:12;3.50;;;2.33;;
44816;SDS011;30529;53.570;9.964;2023-07-08T11:26:37;5.53;;;2.23;;
44816;SDS011;30529;53.570;9.964;2023-07-08T11:29:15;3.00;;;2.13;;
44816;SDS011;30529;53.570;9.964;2023-07-08T11:31:57;3.63;;;2.60;;
44816;SDS011;30529;53.570;9.964;2023-07-08T11:34:23;2.90;;;1.80;;
44816;SDS011;30529;53.570;9.964;2023-07-08T11:36:51;2.77;;;2.20;;
44816;SDS011;30529;53.570;9.964;2023-07-08T11:39:38;2.97;;;2.23;;
44816;SDS011;30529;53.570;9.964;2023-07-08T11:42:17;3.80;;;2.40;;
44816;SDS011;30529;53.570;9.964;2023-07-08T11:44:54;2.87;;;2.17;;
44816;SDS011;30529;53.570;9.964;2023-07-08T11:47:41;2.57;;;2.00;;
44816;SDS011;30529;53.570;9.964;2023-07-08T11:50:23;3.17;;;2.20;;
44816;SDS011;30529;53.570;9.964;2023-07-08T11:52:55;3.80;;;2.63;;
44816;SDS011;30529;53.570;9.964;2023-07-08T11:55:25;2.63;;;2.03;;
44816;SDS011;30529;53.570;9.964;2023-07-08T11:57:59;2.23;;;1.73;;
44816;SDS011;30529;53.570;9.964;2023-07-08T12:00:25;3.90;;;2.43;;
44816;SDS011;30529;53.570;9.964;2023-07-08T12:02:58;4.10;;;2.13;;
44816;SDS011;30529;53.570;9.964;2023-07-08T12:05:33;3.20;;;1.87;;
44816;SDS011;30529;53.570;9.964;2023-07-08T12:08:02;3.40;;;1.93;;
44816;SDS011;30529;53.570;9.964;2023-07-08T12:10:40;7.10;;;4.30;;
44816;SDS011;30529;53.570;9.964;2023-07-08T12:13:15;3.37;;;2.07;;
44816;SDS011;30529;53.570;9.964;2023-07-08T12:15:44;5.20;;;2.43;;
44816;SDS011;30529;53.570;9.964;2023-07-08T12:20:39;4.80;;;2.60;;
44816;SDS011;30529;53.570;9.964;2023-07-08T12:23:11;3.17;;;2.00;;
44816;SDS011;30529;53.570;9.964;2023-07-08T12:25:38;3.50;;;2.43;;
44816;SDS011;30529;53.570;9.964;2023-07-08T12:28:05;4.07;;;2.40;;
44816;SDS011;30529;53.570;9.964;2023-07-08T12:30:31;4.00;;;2.20;;
44816;SDS011;30529;53.570;9.964;2023-07-08T12:32:59;3.63;;;1.90;;
44816;SDS011;30529;53.570;9.964;2023-07-08T12:38:00;3.33;;;2.23;;
44816;SDS011;30529;53.570;9.964;2023-07-08T12:40:43;4.13;;;2.27;;
44816;SDS011;30529;53.570;9.964;2023-07-08T12:43:09;4.23;;;2.53;;
44816;SDS011;30529;53.570;9.964;2023-07-08T12:45:36;3.70;;;3.33;;
44816;SDS011;30529;53.570;9.964;2023-07-08T12:48:04;4.40;;;2.30;;
44816;SDS011;30529;53.570;9.964;2023-07-08T12:50:31;3.00;;;2.40;;
44816;SDS011;30529;53.570;9.964;2023-07-08T12:52:57;3.83;;;2.70;;
44816;SDS011;30529;53.570;9.964;2023-07-08T12:55:23;3.43;;;2.10;;
44816;SDS011;30529;53.570;9.964;2023-07-08T12:57:50;2.93;;;1.90;;
44816;SDS011;30529;53.570;9.964;2023-07-08T13:00:21;4.60;;;2.00;;
44816;SDS011;30529;53.570;9.964;2023-07-08T13:05:55;2.93;;;2.20;;
44816;SDS011;30529;53.570;9.964;2023-07-08T13:08:24;3.60;;;2.53;;
44816;SDS011;30529;53.570;9.964;2023-07-08T13:10:57;4.27;;;2.63;;
44816;SDS011;30529;53.570;9.964;2023-07-08T13:13:27;4.30;;;2.53;;
44816;SDS011;30529;53.570;9.964;2023-07-08T13:16:19;2.93;;;2.50;;
44816;SDS011;30529;53.570;9.964;2023-07-08T13:18:47;4.47;;;2.63;;
44816;SDS011;30529;53.570;9.964;2023-07-08T13:21:15;5.57;;;2.60;;
44816;SDS011;30529;53.570;9.964;2023-07-08T13:23:57;3.67;;;2.40;;
44816;SDS011;30529;53.570;9.964;2023-07-08T13:26:38;2.50;;;2.30;;
44816;SDS011;30529;53.570;9.964;2023-07-08T13:29:13;5.57;;;2.30;;
44816;SDS011;30529;53.570;9.964;2023-07-08T13:32:06;4.10;;;2.20;;
44816;SDS011;30529;53.570;9.964;2023-07-08T13:35:20;2.77;;;2.17;;
44816;SDS011;30529;53.570;9.964;2023-07-08T13:38:15;6.17;;;2.57;;
44816;SDS011;30529;53.570;9.964;2023-07-08T13:41:30;2.60;;;2.30;;
44816;SDS011;30529;53.570;9.964;2023-07-08T13:43:56;3.23;;;2.27;;
44816;SDS011;30529;53.570;9.964;2023-07-08T13:46:29;4.13;;;2.43;;
44816;SDS011;30529;53.570;9.964;2023-07-08T13:49:02;6.43;;;2.10;;
44816;SDS011;30529;53.570;9.964;2023-07-08T13:51:34;4.80;;;2.70;;
44816;SDS011;30529;53.570;9.964;2023-07-08T13:54:07;3.80;;;2.20;;
44816;SDS011;30529;53.570;9.964;2023-07-08T13:56:38;2.40;;;1.73;;
44816;SDS011;30529;53.570;9.964;2023-07-08T13:59:08;4.17;;;2.10;;
44816;SDS011;30529;53.570;9.964;2023-07-08T14:01:40;4.03;;;2.30;;
44816;SDS011;30529;53.570;9.964;2023-07-08T14:04:09;6.37;;;2.97;;
44816;SDS011;30529;53.570;9.964;2023-07-08T14:06:38;3.97;;;2.37;;
44816;SDS011;30529;53.570;9.964;2023-07-08T14:09:14;4.03;;;2.70;;
44816;SDS011;30529;53.570;9.964;2023-07-08T14:11:46;4.73;;;2.63;;
44816;SDS011;30529;53.570;9.964;2023-07-08T14:14:13;5.57;;;2.80;;
44816;SDS011;30529;53.570;9.964;2023-07-08T14:16:41;3.73;;;2.30;;
44816;SDS011;30529;53.570;9.964;2023-07-08T14:19:13;5.43;;;2.73;;
44816;SDS011;30529;53.570;9.964;2023-07-08T14:21:42;4.03;;;2.60;;
44816;SDS011;30529;53.570;9.964;2023-07-08T14:24:11;3.17;;;2.60;;
44816;SDS011;30529;53.570;9.964;2023-07-08T14:26:41;4.10;;;2.73;;
44816;SDS011;30529;53.570;9.964;2023-07-08T14:29:10;4.90;;;2.47;;
44816;SDS011;30529;53.570;9.964;2023-07-08T14:31:38;3.73;;;2.70;;
44816;SDS011;30529;53.570;9.964;2023-07-08T14:34:08;3.60;;;2.30;;
44816;SDS011;30529;53.570;9.964;2023-07-08T14:36:37;4.33;;;2.73;;
44816;SDS011;30529;53.570;9.964;2023-07-08T14:39:13;4.23;;;2.30;;
44816;SDS011;30529;53.570;9.964;2023-07-08T14:41:40;5.97;;;2.63;;
44816;SDS011;30529;53.570;9.964;2023-07-08T14:44:18;3.20;;;2.37;;
44816;SDS011;30529;53.570;9.964;2023-07-08T14:46:49;4.10;;;2.30;;
44816;SDS011;30529;53.570;9.964;2023-07-08T14:49:20;4.63;;;2.70;;
44816;SDS011;30529;53.570;9.964;2023-07-08T14:51:48;4.60;;;2.80;;
44816;SDS011;30529;53.570;9.964;2023-07-08T14:54:14;4.27;;;2.30;;
44816;SDS011;30529;53.570;9.964;2023-07-08T14:56:41;3.03;;;2.50;;
44816;SDS011;30529;53.570;9.964;2023-07-08T14:59:29;2.80;;;2.20;;
44816;SDS011;30529;53.570;9.964;2023-07-08T15:01:55;3.00;;;2.60;;
44816;SDS011;30529;53.570;9.964;2023-07-08T15:04:23;5.97;;;2.43;;
44816;SDS011;30529;53.570;9.964;2023-07-08T15:06:49;2.90;;;2.30;;
44816;SDS011;30529;53.570;9.964;2023-07-08T15:09:16;4.17;;;2.40;;
44816;SDS011;30529;53.570;9.964;2023-07-08T15:11:43;4.03;;;2.70;;
44816;SDS011;30529;53.570;9.964;2023-07-08T15:14:22;3.80;;;2.43;;
44816;SDS011;30529;53.570;9.964;2023-07-08T15:16:50;3.73;;;2.60;;
44816;SDS011;30529;53.570;9.964;2023-07-08T15:19:17;7.73;;;3.23;;
44816;SDS011;30529;53.570;9.964;2023-07-08T15:21:45;3.63;;;2.73;;
44816;SDS011;30529;53.570;9.964;2023-07-08T15:24:12;3.77;;;2.73;;
44816;SDS011;30529;53.570;9.964;2023-07-08T15:26:39;5.37;;;2.47;;
44816;SDS011;30529;53.570;9.964;2023-07-08T15:29:12;3.00;;;2.57;;
44816;SDS011;30529;53.570;9.964;2023-07-08T15:31:41;4.67;;;3.20;;
44816;SDS011;30529;53.570;9.964;2023-07-08T15:34:08;7.47;;;4.60;;
44816;SDS011;30529;53.570;9.964;2023-07-08T15:36:38;4.33;;;3.00;;
44816;SDS011;30529;53.570;9.964;2023-07-08T15:39:04;4.03;;;2.77;;
44816;SDS011;30529;53.570;9.964;2023-07-08T15:41:30;4.30;;;2.70;;
44816;SDS011;30529;53.570;9.964;2023-07-08T15:43:58;4.30;;;2.83;;
44816;SDS011;30529;53.570;9.964;2023-07-08T15:46:26;4.00;;;2.50;;
44816;SDS011;30529;53.570;9.964;2023-07-08T15:49:20;7.93;;;2.90;;
44816;SDS011;30529;53.570;9.964;2023-07-08T15:52:22;2.60;;;2.20;;
44816;SDS011;30529;53.570;9.964;2023-07-08T15:54:48;4.00;;;2.60;;
44816;SDS011;30529;53.570;9.964;2023-07-08T15:57:20;3.90;;;2.83;;
44816;SDS011;30529;53.570;9.964;2023-07-08T15:59:46;3.80;;;2.63;;
44816;SDS011;30529;53.570;9.964;2023-07-08T16:02:15;3.83;;;2.67;;
44816;SDS011;30529;53.570;9.964;2023-07-08T16:04:52;6.50;;;3.03;;